Time;durP1;ratioP1;P1;durP2;ratioP2;P2;SDS_P1;SDS_P2;PMS_P1;PMS_P2;Temp;Humidity;BMP_temperature;BMP_pressure;BME280_temperature;BME280_humidity;BME280_pressure;Samples;Min_cycle;Max_cycle;Signal;HPM_P1;HPM_P2
2022/03/08 00:00:15;;;;;;;1.40;1.23;;;;;;;;;;4956624;29;20031;-45
2022/03/08 00:02:41;;;;;;;3.40;1.42;;;;;;;;;;4956217;28;20087;-48
2022/03/08 00:05:07;;;;;;;1.42;1.33;;;;;;;;;;4956567;29;20070;-49
2022/03/08 00:07:33;;;;;;;1.50;0.80;;;;;;;;;;4956394;28;20055;-48
2022/03/08 00:10:00;;;;;;;2.38;1.40;;;;;;;;;;4956090;29;20078;-49
2022/03/08 00:12:26;;;;;;;1.48;0.90;;;;;;;;;;4956345;29;20486;-48
2022/03/08 00:14:52;;;;;;;2.15;1.20;;;;;;;;;;4956317;29;20027;-49
2022/03/08 00:17:17;;;;;;;2.53;1.63;;;;;;;;;;4956260;29;20035;-50
2022/03/08 00:19:43;;;;;;;1.30;1.20;;;;;;;;;;4956257;29;20391;-49
2022/03/08 00:22:09;;;;;;;1.20;1.10;;;;;;;;;;4956241;29;20023;-47
2022/03/08 00:24:35;;;;;;;2.30;1.40;;;;;;;;;;4956107;29;20039;-52
2022/03/08 00:27:01;;;;;;;1.83;1.10;;;;;;;;;;4956084;29;20063;-52
2022/03/08 00:29:27;;;;;;;1.30;1.00;;;;;;;;;;4956067;29;20082;-53
2022/03/08 00:31:53;;;;;;;1.13;1.00;;;;;;;;;;4956101;29;20034;-49
2022/03/08 00:34:19;;;;;;;1.38;1.00;;;;;;;;;;4955922;29;20027;-50
2022/03/08 00:36:45;;;;;;;1.55;1.27;;;;;;;;;;4956012;29;20106;-49
2022/03/08 00:39:11;;;;;;;1.35;1.13;;;;;;;;;;4955973;29;20034;-51
2022/03/08 00:41:37;;;;;;;1.40;1.05;;;;;;;;;;4955824;29;20027;-48
2022/03/08 00:44:04;;;;;;;1.70;1.08;;;;;;;;;;4955995;29;20046;-48
2022/03/08 00:46:30;;;;;;;2.08;1.23;;;;;;;;;;4955776;29;20039;-49
2022/03/08 00:48:56;;;;;;;1.58;1.20;;;;;;;;;;4955708;29;20039;-48
2022/03/08 00:51:23;;;;;;;1.10;1.00;;;;;;;;;;4955664;29;20031;-48
2022/03/08 00:53:49;;;;;;;1.50;1.40;;;;;;;;;;4955886;29;20090;-48
2022/03/08 00:56:15;;;;;;;1.20;1.10;;;;;;;;;;4955505;29;20031;-47
2022/03/08 00:58:41;;;;;;;1.63;1.30;;;;;;;;;;4955583;29;20051;-45
2022/03/08 01:01:08;;;;;;;1.90;1.20;;;;;;;;;;4955373;28;20043;-46
2022/03/08 01:03:34;;;;;;;1.58;1.30;;;;;;;;;;4955238;29;20055;-47
2022/03/08 01:06:00;;;;;;;1.42;1.15;;;;;;;;;;4955347;29;20054;-46
2022/03/08 01:08:26;;;;;;;1.77;1.08;;;;;;;;;;4955256;29;20039;-46
2022/03/08 01:10:52;;;;;;;1.75;0.90;;;;;;;;;;4955210;29;20034;-46
2022/03/08 01:13:18;;;;;;;3.08;1.20;;;;;;;;;;4955259;29;20295;-46
2022/03/08 01:15:44;;;;;;;2.13;1.10;;;;;;;;;;4955230;29;20357;-47
2022/03/08 01:18:11;;;;;;;1.42;1.00;;;;;;;;;;4955102;29;20101;-46
2022/03/08 01:20:37;;;;;;;1.50;1.02;;;;;;;;;;4954566;28;20102;-47
2022/03/08 01:23:03;;;;;;;1.60;1.08;;;;;;;;;;4954934;29;20078;-46
2022/03/08 01:25:29;;;;;;;1.38;1.23;;;;;;;;;;4954980;29;20035;-46
2022/03/08 01:27:55;;;;;;;1.13;0.95;;;;;;;;;;4954939;29;20028;-46
2022/03/08 01:30:22;;;;;;;1.65;1.10;;;;;;;;;;4954818;29;20035;-46
2022/03/08 01:32:48;;;;;;;1.63;1.10;;;;;;;;;;4954939;28;20500;-49
2022/03/08 01:35:15;;;;;;;1.10;1.00;;;;;;;;;;4954900;29;20434;-48
2022/03/08 01:37:41;;;;;;;1.25;0.90;;;;;;;;;;4954817;29;20058;-49
2022/03/08 01:40:08;;;;;;;2.00;1.10;;;;;;;;;;4954981;29;20097;-49
2022/03/08 01:42:34;;;;;;;1.50;1.20;;;;;;;;;;4954796;29;20427;-49
2022/03/08 01:45:01;;;;;;;1.63;1.35;;;;;;;;;;4954582;29;20027;-48
2022/03/08 01:47:27;;;;;;;1.80;1.20;;;;;;;;;;4954823;29;20055;-50
2022/03/08 01:49:54;;;;;;;2.25;1.20;;;;;;;;;;4954977;29;20035;-48
2022/03/08 01:52:21;;;;;;;1.48;1.23;;;;;;;;;;4954605;29;20031;-50
2022/03/08 01:54:47;;;;;;;1.60;1.25;;;;;;;;;;4954538;29;20031;-48
2022/03/08 01:57:13;;;;;;;2.83;1.38;;;;;;;;;;4954411;29;20032;-49
2022/03/08 01:59:40;;;;;;;2.35;1.10;;;;;;;;;;4954414;29;20086;-49
2022/03/08 02:02:07;;;;;;;1.27;1.08;;;;;;;;;;4954078;28;20130;-49
2022/03/08 02:04:33;;;;;;;1.42;1.13;;;;;;;;;;4954271;29;20489;-49
2022/03/08 02:07:00;;;;;;;1.52;1.23;;;;;;;;;;4954359;29;20023;-49
2022/03/08 02:09:26;;;;;;;1.23;1.10;;;;;;;;;;4954435;29;20106;-50
2022/03/08 02:11:52;;;;;;;1.85;1.02;;;;;;;;;;4954319;29;20450;-49
2022/03/08 02:14:18;;;;;;;1.13;1.02;;;;;;;;;;4954244;29;20031;-48
2022/03/08 02:16:44;;;;;;;2.97;1.23;;;;;;;;;;4954200;29;20027;-48
2022/03/08 02:19:11;;;;;;;1.90;1.20;;;;;;;;;;4954174;29;20019;-49
2022/03/08 02:21:37;;;;;;;1.40;1.10;;;;;;;;;;4954398;29;20410;-49
2022/03/08 02:24:03;;;;;;;1.55;1.17;;;;;;;;;;4954312;29;20032;-49
2022/03/08 02:26:31;;;;;;;1.35;1.10;;;;;;;;;;4954004;29;20079;-49
2022/03/08 02:28:58;;;;;;;3.00;1.20;;;;;;;;;;4954064;29;20027;-45
2022/03/08 02:31:24;;;;;;;2.85;1.50;;;;;;;;;;4953885;29;20410;-46
2022/03/08 02:33:50;;;;;;;1.38;1.05;;;;;;;;;;4953989;29;20039;-45
2022/03/08 02:36:16;;;;;;;1.30;1.00;;;;;;;;;;4953928;29;20034;-46
2022/03/08 02:38:42;;;;;;;2.42;0.90;;;;;;;;;;4953912;29;20071;-46
2022/03/08 02:41:08;;;;;;;1.25;1.15;;;;;;;;;;4953958;29;20051;-45
2022/03/08 02:43:35;;;;;;;0.98;0.80;;;;;;;;;;4953797;29;20505;-45
2022/03/08 02:46:01;;;;;;;1.50;1.23;;;;;;;;;;4953965;29;20036;-49
2022/03/08 02:48:27;;;;;;;1.90;1.08;;;;;;;;;;4953947;29;20038;-46
2022/03/08 02:50:53;;;;;;;1.30;1.17;;;;;;;;;;4953899;29;20039;-46
2022/03/08 02:53:20;;;;;;;1.42;1.17;;;;;;;;;;4953874;28;20070;-46
2022/03/08 02:55:46;;;;;;;1.92;1.00;;;;;;;;;;4953818;29;20035;-46
2022/03/08 02:58:12;;;;;;;1.35;1.25;;;;;;;;;;4953821;29;20031;-45
2022/03/08 03:00:38;;;;;;;1.27;1.08;;;;;;;;;;4953739;29;20032;-46
2022/03/08 03:03:05;;;;;;;2.25;1.30;;;;;;;;;;4953475;28;20054;-46
2022/03/08 03:05:31;;;;;;;1.17;1.05;;;;;;;;;;4953781;29;20042;-46
2022/03/08 03:07:57;;;;;;;1.65;1.40;;;;;;;;;;4954016;29;20067;-46
2022/03/08 03:10:24;;;;;;;1.40;1.20;;;;;;;;;;4953708;28;20479;-46
2022/03/08 03:12:51;;;;;;;1.27;1.17;;;;;;;;;;4953648;29;20102;-48
2022/03/08 03:15:18;;;;;;;1.58;1.25;;;;;;;;;;4953633;29;20114;-46
2022/03/08 03:17:45;;;;;;;1.50;1.20;;;;;;;;;;4953650;29;20545;-45
2022/03/08 03:20:14;;;;;;;3.28;1.10;;;;;;;;;;4953612;29;20035;-45
2022/03/08 03:22:40;;;;;;;1.40;1.17;;;;;;;;;;4953503;29;20039;-45
2022/03/08 03:25:07;;;;;;;3.63;1.45;;;;;;;;;;4953688;29;20118;-48
2022/03/08 03:27:33;;;;;;;1.02;0.80;;;;;;;;;;4953864;29;20027;-49
2022/03/08 03:29:59;;;;;;;1.00;0.90;;;;;;;;;;4953530;29;20028;-48
2022/03/08 03:32:25;;;;;;;1.77;1.08;;;;;;;;;;4953822;29;20050;-49
2022/03/08 03:34:51;;;;;;;1.45;1.00;;;;;;;;;;4953438;29;20107;-49
2022/03/08 03:37:18;;;;;;;1.20;0.90;;;;;;;;;;4953559;29;20031;-48
2022/03/08 03:39:44;;;;;;;1.50;1.10;;;;;;;;;;4953597;29;20501;-49
2022/03/08 03:42:10;;;;;;;1.17;1.05;;;;;;;;;;4953536;29;20331;-45
2022/03/08 03:44:36;;;;;;;1.63;1.13;;;;;;;;;;4956084;28;20364;-46
2022/03/08 03:47:02;;;;;;;1.50;1.30;;;;;;;;;;4956870;29;20038;-48
2022/03/08 03:49:28;;;;;;;1.95;1.13;;;;;;;;;;4956817;29;20031;-47
2022/03/08 03:51:54;;;;;;;2.28;1.40;;;;;;;;;;4956757;29;20094;-47
2022/03/08 03:54:25;;;;;;;1.63;1.10;;;;;;;;;;4956721;28;20027;-46
2022/03/08 03:56:51;;;;;;;1.27;1.05;;;;;;;;;;4956658;29;20134;-46
2022/03/08 03:59:17;;;;;;;2.45;1.40;;;;;;;;;;4956690;29;20521;-47
2022/03/08 04:01:43;;;;;;;2.22;1.10;;;;;;;;;;4956500;28;20106;-47
2022/03/08 04:04:09;;;;;;;1.30;1.00;;;;;;;;;;4956429;29;20529;-45
2022/03/08 04:06:35;;;;;;;2.67;1.23;;;;;;;;;;4956776;29;20027;-47
2022/03/08 04:09:02;;;;;;;1.27;1.05;;;;;;;;;;4956462;29;20069;-47
2022/03/08 04:11:28;;;;;;;1.38;1.00;;;;;;;;;;4956365;29;20032;-47
2022/03/08 04:13:54;;;;;;;2.03;1.23;;;;;;;;;;4956754;29;20078;-48
2022/03/08 04:16:20;;;;;;;2.63;1.10;;;;;;;;;;4956350;29;20106;-47
2022/03/08 04:18:46;;;;;;;1.52;1.10;;;;;;;;;;4956355;29;20035;-46
2022/03/08 04:21:12;;;;;;;1.27;1.13;;;;;;;;;;4956282;29;20035;-46
2022/03/08 04:23:38;;;;;;;1.15;1.05;;;;;;;;;;4956173;29;20043;-46
2022/03/08 04:26:04;;;;;;;1.00;0.90;;;;;;;;;;4956188;29;20027;-47
2022/03/08 04:28:30;;;;;;;1.63;1.15;;;;;;;;;;4956402;29;20059;-46
2022/03/08 04:30:56;;;;;;;2.58;1.38;;;;;;;;;;4956063;29;20031;-46
2022/03/08 04:33:22;;;;;;;1.10;1.00;;;;;;;;;;4956006;29;20035;-47
2022/03/08 04:35:48;;;;;;;1.88;1.40;;;;;;;;;;4956297;29;20031;-47
2022/03/08 04:38:14;;;;;;;1.30;1.20;;;;;;;;;;4955938;29;20027;-46
2022/03/08 04:40:40;;;;;;;2.20;1.25;;;;;;;;;;4955890;29;20031;-46
2022/03/08 04:43:06;;;;;;;2.05;1.10;;;;;;;;;;4955706;29;20086;-46
2022/03/08 04:45:32;;;;;;;1.50;1.30;;;;;;;;;;4956057;29;20027;-50
2022/03/08 04:47:59;;;;;;;1.25;1.00;;;;;;;;;;4955771;29;20027;-45
2022/03/08 04:50:25;;;;;;;1.40;1.30;;;;;;;;;;4955959;29;20035;-46
2022/03/08 04:52:51;;;;;;;2.15;1.50;;;;;;;;;;4955706;29;20038;-46
2022/03/08 04:55:18;;;;;;;3.53;1.65;;;;;;;;;;4954817;28;20027;-49
2022/03/08 04:57:44;;;;;;;1.90;1.38;;;;;;;;;;4955692;29;20119;-48
2022/03/08 05:00:14;;;;;;;1.58;1.48;;;;;;;;;;4955431;29;20538;-48
2022/03/08 05:02:43;;;;;;;1.58;1.27;;;;;;;;;;4955333;28;20086;-50
2022/03/08 05:05:11;;;;;;;1.30;1.20;;;;;;;;;;4955355;29;20498;-48
2022/03/08 05:07:37;;;;;;;1.17;1.15;;;;;;;;;;4955306;29;20054;-50
2022/03/08 05:10:07;;;;;;;2.03;1.40;;;;;;;;;;4955304;29;20036;-48
2022/03/08 05:12:34;;;;;;;1.15;1.05;;;;;;;;;;4955219;29;20038;-49
2022/03/08 05:15:00;;;;;;;1.88;1.58;;;;;;;;;;4955370;29;20435;-49
2022/03/08 05:17:26;;;;;;;1.30;1.10;;;;;;;;;;4955463;29;20083;-50
2022/03/08 05:19:52;;;;;;;2.55;1.40;;;;;;;;;;4955220;29;20490;-49
2022/03/08 05:22:18;;;;;;;1.42;1.27;;;;;;;;;;4955139;29;20498;-50
2022/03/08 05:24:44;;;;;;;1.30;1.20;;;;;;;;;;4955069;29;20482;-48
2022/03/08 05:27:10;;;;;;;1.77;1.38;;;;;;;;;;4955013;29;20027;-48
2022/03/08 05:29:36;;;;;;;2.00;1.30;;;;;;;;;;4955085;29;20110;-48
2022/03/08 05:32:03;;;;;;;2.58;1.60;;;;;;;;;;4954960;29;20042;-46
2022/03/08 05:34:29;;;;;;;1.65;1.10;;;;;;;;;;4955214;29;20031;-46
2022/03/08 05:36:56;;;;;;;1.45;1.35;;;;;;;;;;4954857;29;20032;-48
2022/03/08 05:39:22;;;;;;;1.48;1.38;;;;;;;;;;4954860;29;20059;-46
2022/03/08 05:41:48;;;;;;;2.22;1.58;;;;;;;;;;4954850;29;20027;-46
2022/03/08 05:44:14;;;;;;;1.55;1.35;;;;;;;;;;4954769;29;20035;-46
2022/03/08 05:46:40;;;;;;;1.58;1.48;;;;;;;;;;4954757;29;20033;-45
2022/03/08 05:49:06;;;;;;;1.52;1.10;;;;;;;;;;4954737;29;20074;-46
2022/03/08 05:51:32;;;;;;;1.42;1.27;;;;;;;;;;4954631;29;20054;-50
2022/03/08 05:53:58;;;;;;;1.58;1.40;;;;;;;;;;4954537;29;20587;-50
2022/03/08 05:56:24;;;;;;;2.03;1.52;;;;;;;;;;4954540;29;20066;-49
2022/03/08 05:58:50;;;;;;;2.58;1.60;;;;;;;;;;4954509;29;20497;-49
2022/03/08 06:01:16;;;;;;;2.10;1.60;;;;;;;;;;4954422;28;20105;-49
2022/03/08 06:03:42;;;;;;;1.48;1.15;;;;;;;;;;4954204;29;20043;-49
2022/03/08 06:06:08;;;;;;;1.45;1.35;;;;;;;;;;4954069;28;20031;-48
2022/03/08 06:08:34;;;;;;;3.10;1.27;;;;;;;;;;4954316;29;20028;-47
2022/03/08 06:11:00;;;;;;;2.00;1.48;;;;;;;;;;4954468;29;20034;-50
2022/03/08 06:13:26;;;;;;;1.80;1.33;;;;;;;;;;4954361;29;20039;-48
2022/03/08 06:15:52;;;;;;;1.27;1.15;;;;;;;;;;4954501;29;20029;-49
2022/03/08 06:18:17;;;;;;;2.92;1.50;;;;;;;;;;4954292;29;20460;-49
2022/03/08 06:20:44;;;;;;;1.90;1.15;;;;;;;;;;4954272;29;20037;-48
2022/03/08 06:23:10;;;;;;;2.13;1.00;;;;;;;;;;4954298;29;20031;-48
2022/03/08 06:25:36;;;;;;;1.92;1.33;;;;;;;;;;4954143;29;20099;-49
2022/03/08 06:28:02;;;;;;;1.45;1.25;;;;;;;;;;4954471;29;20027;-49
2022/03/08 06:30:27;;;;;;;1.50;1.40;;;;;;;;;;4954088;29;20114;-50
2022/03/08 06:32:53;;;;;;;3.13;1.08;;;;;;;;;;4954072;29;20062;-50
2022/03/08 06:35:19;;;;;;;3.20;1.10;;;;;;;;;;4954103;29;20031;-50
2022/03/08 06:37:45;;;;;;;1.13;1.02;;;;;;;;;;4954243;29;20043;-48
2022/03/08 06:40:12;;;;;;;1.25;1.15;;;;;;;;;;4953944;29;20081;-48
2022/03/08 06:42:38;;;;;;;1.60;1.30;;;;;;;;;;4953788;29;20509;-49
2022/03/08 06:45:05;;;;;;;1.83;1.25;;;;;;;;;;4953898;29;20487;-48
2022/03/08 06:47:31;;;;;;;1.90;1.40;;;;;;;;;;4953941;29;20029;-48
2022/03/08 06:49:57;;;;;;;2.60;1.30;;;;;;;;;;4953911;28;20027;-48
2022/03/08 06:52:23;;;;;;;1.40;1.23;;;;;;;;;;4953992;28;20031;-49
2022/03/08 06:54:49;;;;;;;2.78;1.50;;;;;;;;;;4953907;29;20038;-50
2022/03/08 06:57:15;;;;;;;2.63;1.55;;;;;;;;;;4953943;29;20498;-50
2022/03/08 06:59:41;;;;;;;1.77;1.33;;;;;;;;;;4953972;29;20037;-52
2022/03/08 07:02:07;;;;;;;1.15;0.95;;;;;;;;;;4954045;28;20058;-49
2022/03/08 07:04:33;;;;;;;4.10;1.60;;;;;;;;;;4953963;29;20039;-47
2022/03/08 07:06:59;;;;;;;2.85;1.00;;;;;;;;;;4954007;29;20462;-48
2022/03/08 07:09:25;;;;;;;4.85;1.50;;;;;;;;;;4953999;29;20039;-47
2022/03/08 07:11:52;;;;;;;2.05;1.40;;;;;;;;;;4953909;29;20035;-47
2022/03/08 07:14:18;;;;;;;5.00;1.60;;;;;;;;;;4954115;29;20019;-47
2022/03/08 07:16:44;;;;;;;2.03;1.17;;;;;;;;;;4953823;29;20502;-47
2022/03/08 07:19:11;;;;;;;2.80;1.45;;;;;;;;;;4956042;28;20118;-46
2022/03/08 07:21:37;;;;;;;2.22;1.00;;;;;;;;;;4957497;29;20478;-46
2022/03/08 07:24:03;;;;;;;1.80;1.30;;;;;;;;;;4957418;29;20466;-50
2022/03/08 07:26:29;;;;;;;2.90;1.40;;;;;;;;;;4957436;29;20542;-51
2022/03/08 07:28:55;;;;;;;1.65;1.38;;;;;;;;;;4957325;29;20027;-50
2022/03/08 07:31:21;;;;;;;4.13;1.30;;;;;;;;;;4957360;29;20050;-49
2022/03/08 07:33:47;;;;;;;2.45;1.40;;;;;;;;;;4957155;29;20032;-48
2022/03/08 07:36:13;;;;;;;1.58;1.40;;;;;;;;;;4957583;28;20399;-51
2022/03/08 07:38:39;;;;;;;1.77;1.33;;;;;;;;;;4957286;29;20110;-49
2022/03/08 07:41:05;;;;;;;2.28;1.48;;;;;;;;;;4957217;29;20501;-49
2022/03/08 07:43:31;;;;;;;2.33;1.38;;;;;;;;;;4957189;29;20046;-49
2022/03/08 07:45:57;;;;;;;3.80;1.40;;;;;;;;;;4957058;29;20019;-48
2022/03/08 07:48:23;;;;;;;2.10;1.15;;;;;;;;;;4957411;29;20453;-52
2022/03/08 07:50:49;;;;;;;2.35;1.30;;;;;;;;;;4956972;29;20379;-48
2022/03/08 07:53:15;;;;;;;1.92;1.45;;;;;;;;;;4956946;29;20038;-50
2022/03/08 07:55:41;;;;;;;3.25;1.75;;;;;;;;;;4956886;29;20032;-48
2022/03/08 07:58:12;;;;;;;2.95;1.67;;;;;;;;;;4956903;29;20038;-48
2022/03/08 08:00:39;;;;;;;2.65;1.60;;;;;;;;;;4957102;29;20086;-47
2022/03/08 08:03:05;;;;;;;2.88;1.25;;;;;;;;;;4956220;28;20054;-47
2022/03/08 08:05:34;;;;;;;1.77;1.50;;;;;;;;;;4956684;29;20038;-48
2022/03/08 08:08:00;;;;;;;2.80;1.77;;;;;;;;;;4956678;29;20031;-46
2022/03/08 08:10:26;;;;;;;2.17;1.35;;;;;;;;;;4956468;29;20053;-46
2022/03/08 08:12:52;;;;;;;1.92;1.30;;;;;;;;;;4956358;29;20474;-46
2022/03/08 08:15:18;;;;;;;3.78;1.13;;;;;;;;;;4956628;29;20024;-46
2022/03/08 08:17:44;;;;;;;1.98;1.63;;;;;;;;;;4956567;29;20054;-46
2022/03/08 08:20:10;;;;;;;3.17;1.50;;;;;;;;;;4956457;29;20043;-48
2022/03/08 08:22:36;;;;;;;2.42;1.30;;;;;;;;;;4956420;28;20031;-47
2022/03/08 08:25:02;;;;;;;1.92;1.00;;;;;;;;;;4956323;29;20078;-47
2022/03/08 08:27:28;;;;;;;2.08;1.02;;;;;;;;;;4956339;29;20031;-48
2022/03/08 08:29:54;;;;;;;2.20;1.30;;;;;;;;;;4955925;28;20031;-47
2022/03/08 08:32:20;;;;;;;1.80;1.20;;;;;;;;;;4956392;29;20035;-47
2022/03/08 08:34:46;;;;;;;2.78;1.30;;;;;;;;;;4956194;29;20063;-48
2022/03/08 08:37:12;;;;;;;1.77;1.42;;;;;;;;;;4956146;29;20038;-47
2022/03/08 08:39:38;;;;;;;2.30;1.45;;;;;;;;;;4956175;29;20027;-47
2022/03/08 08:42:04;;;;;;;3.17;1.27;;;;;;;;;;4955878;29;20042;-47
2022/03/08 08:44:30;;;;;;;1.50;1.30;;;;;;;;;;4955875;29;20043;-46
2022/03/08 08:46:56;;;;;;;2.50;1.38;;;;;;;;;;4955947;29;20027;-47
2022/03/08 08:49:25;;;;;;;1.75;1.10;;;;;;;;;;4955900;29;20505;-46
2022/03/08 08:51:51;;;;;;;1.33;1.20;;;;;;;;;;4956199;29;20034;-47
2022/03/08 08:54:17;;;;;;;2.28;1.35;;;;;;;;;;4955825;29;20110;-48
2022/03/08 08:56:42;;;;;;;1.98;1.17;;;;;;;;;;4955901;29;20079;-47
2022/03/08 08:59:08;;;;;;;1.73;1.10;;;;;;;;;;4955772;29;20470;-46
2022/03/08 09:01:34;;;;;;;3.70;1.27;;;;;;;;;;4955702;28;20026;-46
2022/03/08 09:04:01;;;;;;;2.55;1.58;;;;;;;;;;4955848;29;20405;-48
2022/03/08 09:06:27;;;;;;;1.25;0.95;;;;;;;;;;4955607;29;20035;-46
2022/03/08 09:08:56;;;;;;;1.25;1.00;;;;;;;;;;4955611;29;20442;-50
2022/03/08 09:11:22;;;;;;;1.67;1.10;;;;;;;;;;4955538;29;20054;-48
2022/03/08 09:13:48;;;;;;;1.88;1.08;;;;;;;;;;4955829;28;20422;-46
2022/03/08 09:16:17;;;;;;;1.35;1.25;;;;;;;;;;4955414;29;20031;-46
2022/03/08 09:18:44;;;;;;;7.57;1.20;;;;;;;;;;4955472;29;20484;-46
2022/03/08 09:21:10;;;;;;;1.75;1.38;;;;;;;;;;4955567;29;20024;-45
2022/03/08 09:23:37;;;;;;;1.63;1.10;;;;;;;;;;4955271;29;20047;-46
2022/03/08 09:26:03;;;;;;;1.35;1.20;;;;;;;;;;4955509;29;20027;-46
2022/03/08 09:28:29;;;;;;;0.88;0.80;;;;;;;;;;4955224;29;20106;-45
2022/03/08 09:30:55;;;;;;;3.22;1.20;;;;;;;;;;4955388;29;20170;-46
2022/03/08 09:33:21;;;;;;;1.70;1.02;;;;;;;;;;4955140;29;20098;-48
2022/03/08 09:35:47;;;;;;;2.70;1.15;;;;;;;;;;4954997;29;20118;-48
2022/03/08 09:38:13;;;;;;;2.05;0.82;;;;;;;;;;4954946;29;20053;-49
2022/03/08 09:40:39;;;;;;;1.98;1.30;;;;;;;;;;4954540;28;20035;-49
2022/03/08 09:43:05;;;;;;;1.83;0.93;;;;;;;;;;4954691;29;20038;-49
2022/03/08 09:45:31;;;;;;;1.85;1.25;;;;;;;;;;4954921;29;20078;-49
2022/03/08 09:47:57;;;;;;;1.75;1.10;;;;;;;;;;4954933;29;20035;-48
2022/03/08 09:50:23;;;;;;;2.03;1.30;;;;;;;;;;4955088;29;20099;-47
2022/03/08 09:52:49;;;;;;;2.63;0.95;;;;;;;;;;4955098;29;20032;-48
2022/03/08 09:55:16;;;;;;;2.10;1.00;;;;;;;;;;4954718;29;20466;-46
2022/03/08 09:57:43;;;;;;;1.50;1.00;;;;;;;;;;4954722;29;20115;-48
2022/03/08 10:00:10;;;;;;;1.00;0.90;;;;;;;;;;4954671;29;20055;-46
2022/03/08 10:02:48;;;;;;;1.10;0.85;;;;;;;;;;4954435;28;20425;-46
2022/03/08 10:05:14;;;;;;;0.90;0.88;;;;;;;;;;4954539;29;20031;-46
2022/03/08 10:08:00;;;;;;;1.10;1.00;;;;;;;;;;4954529;29;20401;-48
2022/03/08 10:10:26;;;;;;;3.75;1.48;;;;;;;;;;4954329;29;20031;-46
2022/03/08 10:12:58;;;;;;;1.35;1.05;;;;;;;;;;4954354;29;20090;-46
2022/03/08 10:15:24;;;;;;;2.58;0.88;;;;;;;;;;4954226;29;20034;-48
2022/03/08 10:17:50;;;;;;;1.38;1.27;;;;;;;;;;4954328;29;20033;-46
2022/03/08 10:20:28;;;;;;;2.35;1.20;;;;;;;;;;4954246;29;20035;-46
2022/03/08 10:22:54;;;;;;;1.58;1.25;;;;;;;;;;4954268;29;20343;-47
2022/03/08 10:25:25;;;;;;;1.33;1.00;;;;;;;;;;4954463;29;20027;-46
2022/03/08 10:27:51;;;;;;;1.10;1.00;;;;;;;;;;4954229;29;20038;-49
2022/03/08 10:30:16;;;;;;;1.58;1.40;;;;;;;;;;4954178;29;20027;-49
2022/03/08 10:32:42;;;;;;;1.35;1.08;;;;;;;;;;4954049;29;20490;-49
2022/03/08 10:35:10;;;;;;;1.70;1.23;;;;;;;;;;4953952;29;20035;-48
2022/03/08 10:37:37;;;;;;;1.55;0.98;;;;;;;;;;4954161;29;20027;-50
2022/03/08 10:40:05;;;;;;;1.70;1.00;;;;;;;;;;4954532;29;20454;-49
2022/03/08 10:42:32;;;;;;;2.15;1.02;;;;;;;;;;4954206;29;20023;-48
2022/03/08 10:45:05;;;;;;;1.17;1.08;;;;;;;;;;4954155;29;20043;-48
2022/03/08 10:47:43;;;;;;;1.58;1.00;;;;;;;;;;4954415;29;20047;-49
2022/03/08 10:50:11;;;;;;;4.60;0.90;;;;;;;;;;4954139;29;20039;-48
2022/03/08 10:52:38;;;;;;;1.63;1.10;;;;;;;;;;4955635;28;20035;-48
2022/03/08 10:55:15;;;;;;;1.83;0.82;;;;;;;;;;4958045;29;20042;-49
2022/03/08 10:57:43;;;;;;;2.70;1.25;;;;;;;;;;4957901;29;20063;-48
2022/03/08 11:00:12;;;;;;;1.20;1.05;;;;;;;;;;4957920;29;20081;-49
2022/03/08 11:02:50;;;;;;;3.63;1.07;;;;;;;;;;4957328;28;20062;-52
2022/03/08 11:05:16;;;;;;;1.65;1.00;;;;;;;;;;4957700;29;20669;-53
2022/03/08 11:07:42;;;;;;;1.92;0.93;;;;;;;;;;4957742;29;20494;-48
2022/03/08 11:10:09;;;;;;;2.38;0.73;;;;;;;;;;4957796;29;20119;-49
2022/03/08 11:12:36;;;;;;;2.67;0.80;;;;;;;;;;4957675;29;20039;-48
2022/03/08 11:15:03;;;;;;;3.38;1.15;;;;;;;;;;4940361;29;20479;-49
2022/03/08 11:17:29;;;;;;;1.15;0.80;;;;;;;;;;4957589;28;20378;-48
2022/03/08 11:19:56;;;;;;;2.05;1.02;;;;;;;;;;4940207;29;20027;-50
2022/03/08 11:22:23;;;;;;;1.20;0.70;;;;;;;;;;4957563;29;20486;-48
2022/03/08 11:24:49;;;;;;;1.58;1.00;;;;;;;;;;4957348;29;20072;-48
2022/03/08 11:27:16;;;;;;;1.38;0.98;;;;;;;;;;4957435;29;20031;-48
2022/03/08 11:29:42;;;;;;;0.90;0.85;;;;;;;;;;4957381;29;20035;-49
2022/03/08 11:32:14;;;;;;;1.00;0.85;;;;;;;;;;4957314;29;20497;-48
2022/03/08 11:35:00;;;;;;;0.60;0.60;;;;;;;;;;4957180;29;20039;-48
2022/03/08 11:37:26;;;;;;;2.22;1.25;;;;;;;;;;4957198;29;20042;-49
2022/03/08 11:40:10;;;;;;;1.25;1.00;;;;;;;;;;4957175;29;20098;-47
2022/03/08 11:42:39;;;;;;;1.80;0.88;;;;;;;;;;4957484;29;20039;-50
2022/03/08 11:45:09;;;;;;;1.48;1.15;;;;;;;;;;4957060;29;20039;-48
2022/03/08 11:47:36;;;;;;;1.33;0.88;;;;;;;;;;4957115;29;20035;-49
2022/03/08 11:50:04;;;;;;;1.85;1.17;;;;;;;;;;4956997;29;20031;-49
2022/03/08 11:52:36;;;;;;;2.60;0.88;;;;;;;;;;4956976;29;20046;-47
2022/03/08 11:55:12;;;;;;;2.72;0.95;;;;;;;;;;4956979;29;20019;-47
2022/03/08 11:57:57;;;;;;;1.20;0.90;;;;;;;;;;4956876;29;20050;-49
2022/03/08 12:00:30;;;;;;;0.85;0.65;;;;;;;;;;4957193;29;20035;-49
2022/03/08 12:02:57;;;;;;;1.00;0.82;;;;;;;;;;4956514;28;20118;-48
2022/03/08 12:05:40;;;;;;;1.17;0.88;;;;;;;;;;4956326;28;20446;-48
2022/03/08 12:08:27;;;;;;;4.25;1.20;;;;;;;;;;4956734;29;20110;-48
2022/03/08 12:10:57;;;;;;;0.80;0.80;;;;;;;;;;4956444;29;20102;-49
2022/03/08 12:13:33;;;;;;;1.73;1.00;;;;;;;;;;4956815;29;20031;-48
2022/03/08 12:16:11;;;;;;;0.90;0.68;;;;;;;;;;4956535;29;20027;-49
2022/03/08 12:18:51;;;;;;;1.05;0.70;;;;;;;;;;4956634;29;20031;-49
2022/03/08 12:21:20;;;;;;;1.40;0.75;;;;;;;;;;4956347;29;20031;-47
2022/03/08 12:23:52;;;;;;;1.23;0.73;;;;;;;;;;4956432;28;20130;-48
2022/03/08 12:26:29;;;;;;;1.27;0.85;;;;;;;;;;4956208;29;20035;-48
2022/03/08 12:29:06;;;;;;;0.98;0.90;;;;;;;;;;4956121;29;20074;-48
2022/03/08 12:31:33;;;;;;;1.30;0.93;;;;;;;;;;4956106;29;20572;-48
2022/03/08 12:34:08;;;;;;;1.05;0.88;;;;;;;;;;4955998;29;20027;-50
2022/03/08 12:36:35;;;;;;;1.40;1.00;;;;;;;;;;4956223;29;20027;-48
2022/03/08 12:39:01;;;;;;;1.02;0.93;;;;;;;;;;4956167;29;20027;-48
2022/03/08 12:41:28;;;;;;;1.77;0.90;;;;;;;;;;4955913;29;20054;-48
2022/03/08 12:44:04;;;;;;;1.33;0.70;;;;;;;;;;4955866;29;20041;-48
2022/03/08 12:46:30;;;;;;;1.40;0.90;;;;;;;;;;4956081;29;20145;-48
2022/03/08 12:48:56;;;;;;;2.08;1.02;;;;;;;;;;4955816;29;20055;-48
2022/03/08 12:51:22;;;;;;;0.90;0.70;;;;;;;;;;4955742;29;20082;-51
2022/03/08 12:53:57;;;;;;;1.48;0.80;;;;;;;;;;4955803;29;20035;-47
2022/03/08 12:56:24;;;;;;;1.20;0.90;;;;;;;;;;4955817;29;20075;-48
2022/03/08 12:58:50;;;;;;;1.58;1.08;;;;;;;;;;4955636;29;20039;-48
2022/03/08 13:01:16;;;;;;;1.65;1.17;;;;;;;;;;4955525;28;20081;-48
2022/03/08 13:03:43;;;;;;;1.65;1.00;;;;;;;;;;4955289;29;20047;-48
2022/03/08 13:06:10;;;;;;;1.20;0.90;;;;;;;;;;4955428;29;20046;-47
2022/03/08 13:08:37;;;;;;;1.00;0.90;;;;;;;;;;4955389;29;20323;-48
2022/03/08 13:11:04;;;;;;;1.92;0.95;;;;;;;;;;4955404;29;20036;-48
2022/03/08 13:13:30;;;;;;;1.65;1.00;;;;;;;;;;4955344;29;20042;-47
2022/03/08 13:15:56;;;;;;;1.02;0.90;;;;;;;;;;4954397;28;20286;-47
2022/03/08 13:18:22;;;;;;;1.80;0.90;;;;;;;;;;4955219;29;20282;-47
2022/03/08 13:20:49;;;;;;;1.80;0.90;;;;;;;;;;4955252;29;20218;-49
2022/03/08 13:23:17;;;;;;;0.93;0.80;;;;;;;;;;4955307;29;20529;-47
2022/03/08 13:25:44;;;;;;;1.58;1.05;;;;;;;;;;4938114;29;20517;-47
2022/03/08 13:28:19;;;;;;;0.77;0.77;;;;;;;;;;4954843;29;20504;-47
2022/03/08 13:30:46;;;;;;;1.20;0.80;;;;;;;;;;4955130;29;20027;-49
2022/03/08 13:33:14;;;;;;;4.25;0.95;;;;;;;;;;4955184;29;20509;-49
2022/03/08 13:35:41;;;;;;;2.67;1.00;;;;;;;;;;4954979;29;20032;-48
2022/03/08 13:38:43;;;;;;;1.67;1.05;;;;;;;;;;5110154;27;20748;-48
2022/03/08 13:41:11;;;;;;;1.20;0.75;;;;;;;;;;5107397;28;20075;-46
2022/03/08 13:43:38;;;;;;;2.20;0.70;;;;;;;;;;5110228;28;20077;-47
2022/03/08 13:46:05;;;;;;;0.70;0.70;;;;;;;;;;5110294;28;20065;-47
2022/03/08 13:48:33;;;;;;;0.77;0.77;;;;;;;;;;5110100;28;20020;-48
2022/03/08 13:51:05;;;;;;;1.05;0.80;;;;;;;;;;5110002;28;20055;-47
2022/03/08 13:53:31;;;;;;;3.20;0.70;;;;;;;;;;5109987;28;20028;-47
2022/03/08 13:55:57;;;;;;;1.38;0.90;;;;;;;;;;5109724;28;20067;-46
2022/03/08 13:58:25;;;;;;;0.85;0.85;;;;;;;;;;5110168;28;20048;-48
2022/03/08 14:00:51;;;;;;;1.10;0.80;;;;;;;;;;5109893;28;20369;-48
2022/03/08 14:03:18;;;;;;;1.00;0.77;;;;;;;;;;5109799;28;20393;-48
2022/03/08 14:05:50;;;;;;;1.10;0.90;;;;;;;;;;5109785;28;20035;-48
2022/03/08 14:08:30;;;;;;;1.00;0.90;;;;;;;;;;5109692;28;20486;-47
2022/03/08 14:11:02;;;;;;;2.58;0.73;;;;;;;;;;5109626;28;20020;-47
2022/03/08 14:13:29;;;;;;;4.90;0.80;;;;;;;;;;5109612;28;20452;-47
2022/03/08 14:15:57;;;;;;;1.25;0.70;;;;;;;;;;5109432;28;20061;-48
2022/03/08 14:18:23;;;;;;;1.83;0.82;;;;;;;;;;5109737;28;20081;-48
2022/03/08 14:20:49;;;;;;;1.17;0.60;;;;;;;;;;5109705;28;20024;-47
2022/03/08 14:23:15;;;;;;;2.35;0.63;;;;;;;;;;5109231;28;20036;-47
2022/03/08 14:25:59;;;;;;;2.25;1.00;;;;;;;;;;5109594;28;20022;-47
2022/03/08 14:28:43;;;;;;;1.00;0.90;;;;;;;;;;5109673;28;20016;-50
2022/03/08 14:31:29;;;;;;;0.93;0.77;;;;;;;;;;5109194;28;20106;-48
2022/03/08 14:33:56;;;;;;;1.42;0.88;;;;;;;;;;5109532;28;20019;-48
2022/03/08 14:36:31;;;;;;;2.50;1.08;;;;;;;;;;5108953;28;20529;-48
2022/03/08 14:38:58;;;;;;;1.00;0.70;;;;;;;;;;5109140;28;20485;-48
2022/03/08 14:41:25;;;;;;;1.13;0.80;;;;;;;;;;5109334;28;20028;-48
2022/03/08 14:43:51;;;;;;;1.80;1.40;;;;;;;;;;5109151;28;20031;-49